createdAt,value
2022-08-18T00:02:06.301Z,16.35
2022-08-18T00:04:46.825Z,14.02
2022-08-18T00:07:25.088Z,14.57
2022-08-18T00:10:00.379Z,13.63
2022-08-18T00:12:37.726Z,16.08
2022-08-18T00:15:14.215Z,15.50
2022-08-18T00:17:48.600Z,16.75
2022-08-18T00:20:23.899Z,15.38
2022-08-18T00:22:57.982Z,16.08
2022-08-18T00:25:32.762Z,15.63
2022-08-18T00:28:06.446Z,13.80
2022-08-18T00:30:40.023Z,15.20
2022-08-18T00:33:13.608Z,14.82
2022-08-18T00:35:47.025Z,15.60
2022-08-18T00:38:24.466Z,16.85
2022-08-18T00:40:59.933Z,21.77
2022-08-18T00:43:40.248Z,17.40
2022-08-18T00:46:18.437Z,17.15
2022-08-18T00:48:52.650Z,15.68
2022-08-18T00:51:31.145Z,13.60
2022-08-18T00:54:09.502Z,14.90
2022-08-18T00:56:48.021Z,18.88
2022-08-18T00:59:26.752Z,15.00
2022-08-18T01:02:04.616Z,15.63
2022-08-18T01:04:43.375Z,16.35
2022-08-18T01:07:21.289Z,18.88
2022-08-18T01:09:54.882Z,13.50
2022-08-18T01:12:44.069Z,13.85
2022-08-18T01:15:28.731Z,21.17
2022-08-18T01:18:25.444Z,13.15
2022-08-18T01:21:23.823Z,17.02
2022-08-18T01:23:59.712Z,14.73
2022-08-18T01:26:35.149Z,16.23
2022-08-18T01:29:11.958Z,13.73
2022-08-18T01:31:56.395Z,15.90
2022-08-18T01:34:30.206Z,16.42
2022-08-18T01:37:05.821Z,16.88
2022-08-18T01:41:23.600Z,15.07
2022-08-18T01:42:34.541Z,13.82
2022-08-18T01:45:09.918Z,14.05
2022-08-18T01:47:48.190Z,15.90
2022-08-18T01:50:22.084Z,16.02
2022-08-18T01:52:55.680Z,17.88
2022-08-18T01:55:30.519Z,18.13
2022-08-18T01:58:04.893Z,15.35
2022-08-18T02:00:38.513Z,14.38
2022-08-18T02:03:15.685Z,17.15
2022-08-18T02:05:51.940Z,15.43
2022-08-18T02:08:28.101Z,16.45
2022-08-18T02:11:03.840Z,17.90
2022-08-18T02:13:37.536Z,15.88
2022-08-18T02:16:10.940Z,15.40
2022-08-18T02:18:48.151Z,16.38
2022-08-18T02:21:23.325Z,21.05
2022-08-18T02:23:56.902Z,26.33
2022-08-18T02:26:31.695Z,15.10
2022-08-18T02:29:05.426Z,12.30
2022-08-18T02:31:40.196Z,24.25
2022-08-18T02:34:13.726Z,19.25
2022-08-18T02:36:47.195Z,21.08
2022-08-18T02:39:20.968Z,17.80
2022-08-18T02:41:55.763Z,18.05
2022-08-18T02:44:29.870Z,31.35
2022-08-18T02:47:03.323Z,21.05
2022-08-18T02:49:37.707Z,20.90
2022-08-18T02:52:11.183Z,30.05
2022-08-18T02:54:44.685Z,22.63
2022-08-18T02:57:22.347Z,21.90
2022-08-18T02:59:56.195Z,26.77
2022-08-18T03:02:33.399Z,22.30
2022-08-18T03:05:07.897Z,23.65
2022-08-18T03:07:48.363Z,20.10
2022-08-18T03:10:31.508Z,17.00
2022-08-18T03:13:08.463Z,16.88
2022-08-18T03:15:41.844Z,20.52
2022-08-18T03:18:16.199Z,25.42
2022-08-18T03:20:49.594Z,20.05
2022-08-18T03:23:30.024Z,22.10
2022-08-18T03:26:03.937Z,19.95
2022-08-18T03:28:41.144Z,24.08
2022-08-18T03:31:15.983Z,22.48
2022-08-18T03:33:49.596Z,24.80
2022-08-18T03:36:26.084Z,31.05
2022-08-18T03:39:00.122Z,26.00
2022-08-18T03:41:57.402Z,22.77
2022-08-18T03:44:30.614Z,20.85
2022-08-18T03:47:05.026Z,27.23
2022-08-18T03:49:39.431Z,25.33
2022-08-18T03:52:13.046Z,21.42
2022-08-18T03:54:46.702Z,19.23
2022-08-18T03:57:20.262Z,22.23
2022-08-18T03:59:55.049Z,54.60
2022-08-18T04:05:19.452Z,20.92
2022-08-18T04:07:54.563Z,16.65
2022-08-18T04:10:28.289Z,18.13
2022-08-18T04:13:03.001Z,25.08
2022-08-18T04:15:38.515Z,26.65
2022-08-18T04:18:12.329Z,25.00
2022-08-18T04:20:59.401Z,24.48
2022-08-18T04:23:33.407Z,20.23
2022-08-18T04:26:19.328Z,24.08
2022-08-18T04:28:52.970Z,30.05
2022-08-18T04:31:27.784Z,22.55
2022-08-18T04:34:03.512Z,39.72
2022-08-18T04:36:37.594Z,20.70
2022-08-18T04:39:12.592Z,27.98
2022-08-18T04:41:46.340Z,20.55
2022-08-18T04:44:20.293Z,19.92
2022-08-18T04:46:56.176Z,19.85
2022-08-18T04:49:31.562Z,20.92
2022-08-18T04:52:38.932Z,19.88
2022-08-18T04:55:14.988Z,16.95
2022-08-18T04:57:48.481Z,15.85
2022-08-18T05:00:22.357Z,18.20
2022-08-18T05:02:58.030Z,17.13
2022-08-18T05:05:31.407Z,20.58
2022-08-18T05:08:05.290Z,17.13
2022-08-18T05:10:40.449Z,25.45
2022-08-18T05:13:18.182Z,17.98
2022-08-18T05:16:10.159Z,18.67
2022-08-18T05:18:46.798Z,15.70
2022-08-18T05:21:20.588Z,16.38
2022-08-18T05:23:54.075Z,15.45
2022-08-18T05:26:27.841Z,17.48
2022-08-18T05:29:04.449Z,17.35
2022-08-18T05:31:53.899Z,26.05
2022-08-18T05:34:28.706Z,15.02
2022-08-18T05:37:17.212Z,17.23
2022-08-18T05:39:57.551Z,16.42
2022-08-18T05:42:36.398Z,16.77
2022-08-18T05:45:13.854Z,18.02
2022-08-18T05:47:47.294Z,21.80
2022-08-18T05:50:22.650Z,14.68
2022-08-18T05:52:59.665Z,26.42
2022-08-18T05:55:56.196Z,20.45
2022-08-18T05:58:33.881Z,15.73
2022-08-18T06:01:13.258Z,16.38
2022-08-18T06:03:51.369Z,17.95
2022-08-18T06:06:29.684Z,13.27
2022-08-18T06:09:11.570Z,13.32
2022-08-18T06:11:45.660Z,9.53
2022-08-18T06:14:19.158Z,12.82
2022-08-18T06:17:06.064Z,13.55
2022-08-18T06:19:49.649Z,14.52
2022-08-18T06:22:36.363Z,14.30
2022-08-18T06:25:34.310Z,11.73
2022-08-18T06:28:10.865Z,11.30
2022-08-18T06:30:55.438Z,11.32
2022-08-18T06:33:51.409Z,13.45
2022-08-18T06:36:35.493Z,14.25
2022-08-18T06:39:20.860Z,14.55
2022-08-18T06:41:55.810Z,12.90
2022-08-18T06:44:35.220Z,13.82
2022-08-18T06:47:18.355Z,11.38
2022-08-18T06:49:57.078Z,13.25
2022-08-18T06:52:33.828Z,12.43
2022-08-18T06:55:12.947Z,11.73
2022-08-18T06:57:56.200Z,12.50
2022-08-18T07:00:32.713Z,15.65
2022-08-18T07:03:09.413Z,12.95
2022-08-18T07:06:02.072Z,12.25
2022-08-18T07:08:37.974Z,15.85
2022-08-18T07:11:20.252Z,13.80
2022-08-18T07:14:14.911Z,14.98
2022-08-18T07:16:59.335Z,11.63
2022-08-18T07:19:34.204Z,12.50
2022-08-18T07:22:11.028Z,12.70
2022-08-18T07:24:49.556Z,15.75
2022-08-18T07:27:42.560Z,14.73
2022-08-18T07:30:28.285Z,12.60
2022-08-18T07:33:12.232Z,12.00
2022-08-18T07:35:49.431Z,12.07
2022-08-18T07:38:44.404Z,13.85
2022-08-18T07:41:22.820Z,9.93
2022-08-18T07:44:12.933Z,11.93
2022-08-18T07:46:55.253Z,14.05
2022-08-18T07:49:33.483Z,15.80
2022-08-18T07:52:36.175Z,11.20
2022-08-18T07:55:16.345Z,11.35
2022-08-18T07:57:57.166Z,12.95
2022-08-18T08:03:44.780Z,14.23
2022-08-18T08:06:23.871Z,11.13
2022-08-18T08:09:04.523Z,10.90
2022-08-18T08:11:47.423Z,11.32
2022-08-18T08:14:36.844Z,8.98
2022-08-18T08:17:22.950Z,7.85
2022-08-18T08:20:10.476Z,10.05
2022-08-18T08:22:59.673Z,10.15
2022-08-18T08:25:47.453Z,7.68
2022-08-18T08:28:31.323Z,9.93
2022-08-18T08:31:33.158Z,8.48
2022-08-18T08:34:14.026Z,8.07
2022-08-18T08:36:48.797Z,8.68
2022-08-18T08:39:26.200Z,16.85
2022-08-18T08:42:32.101Z,10.30
2022-08-18T08:45:07.691Z,10.25
2022-08-18T08:47:48.261Z,5.95
2022-08-18T08:50:26.681Z,10.63
2022-08-18T08:53:06.837Z,7.60
2022-08-18T08:55:48.748Z,11.45
2022-08-18T08:58:27.832Z,6.97
2022-08-18T09:01:02.179Z,12.15
2022-08-18T09:03:46.268Z,9.00
2022-08-18T09:06:30.355Z,16.17
2022-08-18T09:09:22.634Z,12.65
2022-08-18T09:12:26.210Z,8.20
2022-08-18T09:15:22.268Z,5.72
2022-08-18T09:18:14.113Z,9.85
2022-08-18T09:21:01.750Z,6.90
2022-08-18T09:23:42.625Z,7.80
2022-08-18T09:26:40.197Z,5.60
2022-08-18T09:29:23.387Z,8.98
2022-08-18T09:32:30.123Z,6.35
2022-08-18T09:35:16.256Z,8.35
2022-08-18T09:38:09.941Z,10.23
2022-08-18T09:41:09.456Z,9.82
2022-08-18T09:44:17.958Z,5.00
2022-08-18T09:46:58.403Z,7.47
2022-08-18T09:49:51.277Z,7.93
2022-08-18T09:53:02.465Z,8.02
2022-08-18T09:56:04.951Z,7.65
2022-08-18T09:59:02.975Z,12.68
2022-08-18T10:01:52.675Z,6.95
2022-08-18T10:04:32.720Z,6.30
2022-08-18T10:07:19.333Z,9.40
2022-08-18T10:10:56.963Z,9.98
2022-08-18T10:13:16.243Z,7.03
2022-08-18T10:16:10.794Z,7.60
2022-08-18T10:18:59.191Z,10.15
2022-08-18T10:22:04.083Z,7.85
2022-08-18T10:24:43.253Z,9.80
2022-08-18T10:27:38.202Z,8.77
2022-08-18T10:31:06.435Z,8.07
2022-08-18T10:34:16.111Z,10.77
2022-08-18T10:36:53.205Z,5.70
2022-08-18T10:39:45.633Z,5.78
2022-08-18T10:42:24.559Z,9.13
2022-08-18T10:45:12.641Z,11.15
2022-08-18T10:48:01.305Z,10.10
2022-08-18T10:50:42.621Z,8.32
2022-08-18T10:53:39.787Z,7.47
2022-08-18T10:56:29.609Z,7.20
2022-08-18T10:59:28.711Z,9.88
2022-08-18T11:02:21.674Z,9.88
2022-08-18T11:04:58.854Z,6.32
2022-08-18T11:07:39.567Z,6.75
2022-08-18T11:10:58.278Z,8.02
2022-08-18T11:13:21.748Z,6.28
2022-08-18T11:18:43.226Z,8.63
2022-08-18T11:21:36.155Z,9.23
2022-08-18T11:24:22.148Z,10.88
2022-08-18T11:26:57.412Z,5.93
2022-08-18T11:29:35.017Z,13.30
2022-08-18T11:32:12.596Z,10.25
2022-08-18T11:34:53.263Z,8.27
2022-08-18T11:37:48.884Z,5.88
2022-08-18T11:43:40.882Z,13.15
2022-08-18T11:46:30.166Z,8.73
2022-08-18T11:49:18.171Z,7.00
2022-08-18T11:52:03.550Z,7.00
2022-08-18T11:54:50.712Z,6.78
2022-08-18T11:57:50.170Z,6.80
2022-08-18T12:00:43.594Z,9.90
2022-08-18T12:03:28.582Z,5.63
2022-08-18T12:06:19.169Z,8.20
2022-08-18T12:08:59.196Z,6.75
2022-08-18T12:11:35.065Z,7.57
2022-08-18T12:14:29.772Z,6.10
2022-08-18T12:17:10.496Z,5.63
2022-08-18T12:19:44.570Z,5.28
2022-08-18T12:22:22.404Z,6.88
2022-08-18T12:24:56.623Z,7.55
2022-08-18T12:27:32.337Z,5.30
2022-08-18T12:33:05.952Z,8.90
2022-08-18T12:35:45.725Z,10.45
2022-08-18T12:38:19.882Z,5.38
2022-08-18T12:40:53.383Z,5.72
2022-08-18T12:43:27.476Z,6.45
2022-08-18T12:46:07.600Z,14.70
2022-08-18T12:48:45.330Z,8.82
2022-08-18T12:51:20.401Z,5.20
2022-08-18T12:53:59.949Z,8.40
2022-08-18T12:56:55.197Z,5.82
2022-08-18T12:59:32.570Z,8.88
2022-08-18T13:02:12.515Z,8.88
2022-08-18T13:04:46.326Z,6.13
2022-08-18T13:07:20.961Z,8.18
2022-08-18T13:09:55.805Z,6.07
2022-08-18T13:12:29.181Z,5.68
2022-08-18T13:15:02.606Z,7.03
2022-08-18T13:17:41.521Z,6.07
2022-08-18T13:20:18.442Z,5.22
2022-08-18T13:22:51.824Z,6.15
2022-08-18T13:25:33.183Z,6.75
2022-08-18T13:28:13.792Z,10.23
2022-08-18T13:30:47.372Z,7.53
2022-08-18T13:33:34.653Z,5.97
2022-08-18T13:36:15.684Z,6.93
2022-08-18T13:38:50.223Z,7.28
2022-08-18T13:43:58.275Z,7.70
2022-08-18T13:46:32.673Z,7.60
2022-08-18T13:49:07.658Z,8.70
2022-08-18T13:51:41.609Z,6.30
2022-08-18T13:54:30.946Z,6.53
2022-08-18T13:57:06.762Z,7.20
2022-08-18T13:59:46.563Z,7.35
2022-08-18T14:02:26.948Z,5.03
2022-08-18T14:05:02.198Z,6.78
2022-08-18T14:07:37.165Z,5.43
2022-08-18T14:10:13.602Z,6.32
2022-08-18T14:12:47.960Z,6.97
2022-08-18T14:15:24.504Z,7.63
2022-08-18T14:17:57.978Z,11.35
2022-08-18T14:20:53.376Z,6.25
2022-08-18T14:23:53.046Z,7.50
2022-08-18T14:26:44.166Z,7.75
2022-08-18T14:29:45.695Z,5.88
2022-08-18T14:32:13.208Z,7.43
2022-08-18T14:35:00.916Z,5.80
2022-08-18T14:37:47.224Z,8.27
2022-08-18T14:40:21.856Z,5.95
2022-08-18T14:42:55.585Z,8.32
2022-08-18T14:45:34.310Z,6.85
2022-08-18T14:48:11.184Z,5.85
2022-08-18T14:50:49.039Z,8.30
2022-08-18T14:53:30.042Z,6.10
2022-08-18T14:56:07.863Z,8.73
2022-08-18T14:58:43.392Z,7.22
2022-08-18T15:01:17.737Z,6.20
2022-08-18T15:03:51.209Z,6.65
2022-08-18T15:06:27.252Z,7.00
2022-08-18T15:09:02.215Z,6.13
2022-08-18T15:11:35.728Z,6.72
2022-08-18T15:14:09.850Z,6.05
2022-08-18T15:16:43.415Z,7.93
2022-08-18T15:19:58.819Z,8.40
2022-08-18T15:22:33.505Z,5.90
2022-08-18T15:25:27.588Z,6.18
2022-08-18T15:28:01.703Z,7.78
2022-08-18T15:33:16.648Z,5.70
2022-08-18T15:35:50.632Z,8.25
2022-08-18T15:38:25.952Z,6.15
2022-08-18T15:41:06.271Z,7.30
2022-08-18T15:43:46.320Z,5.35
2022-08-18T15:46:21.526Z,8.07
2022-08-18T15:48:58.173Z,5.63
2022-08-18T15:51:41.222Z,8.13
2022-08-18T15:54:15.272Z,8.90
2022-08-18T15:56:58.388Z,7.40
2022-08-18T15:59:34.271Z,6.50
2022-08-18T16:02:19.272Z,3.90
2022-08-18T16:04:53.405Z,6.57
2022-08-18T16:07:39.870Z,5.07
2022-08-18T16:10:15.259Z,6.95
2022-08-18T16:12:51.222Z,6.15
2022-08-18T16:15:26.203Z,6.35
2022-08-18T16:17:59.727Z,5.07
2022-08-18T16:20:34.868Z,5.55
2022-08-18T16:23:08.448Z,5.38
2022-08-18T16:25:42.695Z,5.22
2022-08-18T16:28:17.432Z,4.53
2022-08-18T16:30:51.019Z,6.25
2022-08-18T16:33:24.377Z,8.52
2022-08-18T16:36:03.214Z,7.55
2022-08-18T16:38:38.322Z,7.18
2022-08-18T16:41:15.045Z,5.47
2022-08-18T16:43:50.423Z,6.10
2022-08-18T16:46:27.159Z,6.70
2022-08-18T16:49:01.312Z,5.07
2022-08-18T16:51:35.288Z,9.95
2022-08-18T16:54:08.906Z,5.15
2022-08-18T16:56:42.384Z,4.47
2022-08-18T16:59:34.799Z,8.52
2022-08-18T17:02:25.046Z,24.55
2022-08-18T17:05:02.384Z,9.43
2022-08-18T17:07:37.232Z,8.77
2022-08-18T17:10:10.935Z,5.07
2022-08-18T17:12:44.382Z,8.05
2022-08-18T17:15:19.300Z,8.27
2022-08-18T17:17:52.813Z,6.22
2022-08-18T17:20:26.173Z,7.35
2022-08-18T17:23:00.474Z,9.20
2022-08-18T17:25:35.861Z,8.25
2022-08-18T17:28:10.912Z,9.18
2022-08-18T17:30:50.109Z,12.43
2022-08-18T17:33:29.024Z,13.18
2022-08-18T17:36:06.918Z,10.13
2022-08-18T17:38:45.432Z,10.10
2022-08-18T17:41:21.312Z,9.90
2022-08-18T17:43:58.277Z,9.27
2022-08-18T17:46:41.208Z,10.80
2022-08-18T17:49:19.125Z,13.45
2022-08-18T17:51:56.366Z,16.50
2022-08-18T17:54:38.187Z,12.65
2022-08-18T17:57:14.838Z,11.75
2022-08-18T17:59:53.403Z,8.82
2022-08-18T18:02:31.207Z,13.95
2022-08-18T18:05:08.288Z,12.15
2022-08-18T18:07:56.136Z,12.57
2022-08-18T18:10:51.149Z,15.35
2022-08-18T18:13:31.850Z,17.85
2022-08-18T18:16:22.317Z,11.35
2022-08-18T18:19:02.943Z,11.05
2022-08-18T18:22:01.504Z,11.15
2022-08-18T18:24:33.538Z,13.48
2022-08-18T18:27:27.985Z,8.35
2022-08-18T18:30:03.315Z,9.30
2022-08-18T18:32:59.616Z,13.88
2022-08-18T18:35:54.583Z,8.30
2022-08-18T18:38:32.239Z,9.90
2022-08-18T18:41:20.865Z,11.82
2022-08-18T18:44:07.532Z,12.48
2022-08-18T18:46:47.873Z,17.75
2022-08-18T18:49:28.474Z,21.23
2022-08-18T18:52:10.350Z,14.18
2022-08-18T18:54:55.536Z,10.50
2022-08-18T18:57:45.157Z,10.00
2022-08-18T19:00:23.251Z,12.57
2022-08-18T19:03:07.291Z,11.10
2022-08-18T19:05:50.586Z,11.27
2022-08-18T19:08:35.954Z,11.55
2022-08-18T19:11:17.581Z,10.98
2022-08-18T19:13:57.019Z,11.55
2022-08-18T19:16:34.903Z,9.35
2022-08-18T19:19:37.896Z,11.95
2022-08-18T19:22:18.710Z,11.40
2022-08-18T19:25:01.724Z,11.00
2022-08-18T19:27:41.205Z,13.40
2022-08-18T19:30:16.864Z,11.80
2022-08-18T19:32:53.956Z,9.80
2022-08-18T19:35:37.908Z,11.77
2022-08-18T19:38:21.052Z,11.65
2022-08-18T19:41:00.506Z,8.93
2022-08-18T19:43:42.521Z,10.82
2022-08-18T19:46:24.330Z,12.02
2022-08-18T19:49:04.514Z,11.23
2022-08-18T19:51:40.262Z,10.05
2022-08-18T19:54:32.895Z,11.10
2022-08-18T19:57:23.094Z,13.38
2022-08-18T20:00:13.199Z,12.00
2022-08-18T20:03:06.440Z,13.32
2022-08-18T20:05:52.701Z,9.88
2022-08-18T20:09:02.859Z,12.73
2022-08-18T20:12:09.777Z,12.05
2022-08-18T20:14:58.958Z,14.48
2022-08-18T20:17:32.393Z,13.30
2022-08-18T20:20:15.362Z,11.27
2022-08-18T20:22:55.149Z,12.07
2022-08-18T20:25:41.570Z,11.40
2022-08-18T20:28:32.938Z,15.27
2022-08-18T20:31:16.016Z,11.57
2022-08-18T20:34:14.091Z,11.82
2022-08-18T20:36:49.002Z,12.35
2022-08-18T20:39:40.415Z,10.68
2022-08-18T20:42:57.449Z,15.88
2022-08-18T20:45:45.924Z,11.13
2022-08-18T20:48:31.719Z,14.38
2022-08-18T20:51:11.439Z,12.98
2022-08-18T20:54:04.907Z,10.93
2022-08-18T20:56:50.674Z,10.70
2022-08-18T20:59:32.595Z,14.43
2022-08-18T21:02:27.907Z,14.60
2022-08-18T21:05:02.788Z,11.13
2022-08-18T21:07:39.976Z,11.73
2022-08-18T21:10:20.123Z,10.68
2022-08-18T21:12:56.567Z,11.68
2022-08-18T21:15:35.579Z,10.10
2022-08-18T21:18:20.369Z,13.65
2022-08-18T21:20:58.009Z,12.73
2022-08-18T21:23:35.097Z,12.70
2022-08-18T21:26:11.967Z,14.65
2022-08-18T21:28:47.897Z,11.93
2022-08-18T21:31:28.954Z,14.90
2022-08-18T21:34:34.174Z,11.32
2022-08-18T21:37:11.488Z,15.35
2022-08-18T21:39:53.219Z,13.98
2022-08-18T21:42:28.976Z,13.13
2022-08-18T21:45:02.490Z,11.40
2022-08-18T21:47:36.457Z,13.05
2022-08-18T21:50:14.827Z,11.65
2022-08-18T21:52:55.409Z,17.65
2022-08-18T21:55:32.144Z,12.45
2022-08-18T21:58:17.788Z,12.68
2022-08-18T22:01:11.941Z,16.70
2022-08-18T22:03:55.522Z,12.50
2022-08-18T22:06:36.135Z,12.57
2022-08-18T22:09:34.399Z,12.65
2022-08-18T22:12:47.840Z,10.55
2022-08-18T22:15:23.479Z,9.45
2022-08-18T22:18:00.075Z,10.68
2022-08-18T22:20:36.855Z,12.07
2022-08-18T22:23:41.907Z,10.63
2022-08-18T22:26:23.100Z,12.27
2022-08-18T22:29:01.097Z,12.25
2022-08-18T22:31:39.640Z,10.35
2022-08-18T22:34:16.336Z,11.93
2022-08-18T22:36:54.127Z,12.18
2022-08-18T22:39:30.518Z,11.88
2022-08-18T22:42:06.162Z,12.63
2022-08-18T22:44:39.671Z,10.45
2022-08-18T22:47:13.988Z,10.98
2022-08-18T22:49:48.503Z,14.10
2022-08-18T22:52:29.609Z,11.32
2022-08-18T22:55:07.985Z,12.18
2022-08-18T22:57:43.086Z,12.32
2022-08-18T23:00:21.233Z,12.65
2022-08-18T23:02:57.495Z,14.10
2022-08-18T23:05:31.028Z,9.75
2022-08-18T23:08:04.759Z,10.43
2022-08-18T23:10:38.453Z,12.52
2022-08-18T23:13:13.303Z,14.65
2022-08-18T23:15:47.660Z,9.90
2022-08-18T23:18:23.168Z,11.88
2022-08-18T23:20:58.927Z,11.60
2022-08-18T23:23:32.934Z,12.55
2022-08-18T23:26:06.729Z,13.82
2022-08-18T23:28:46.393Z,10.43
2022-08-18T23:31:20.418Z,12.38
2022-08-18T23:33:53.917Z,12.48
2022-08-18T23:36:27.737Z,14.90
2022-08-18T23:39:01.602Z,13.00
2022-08-18T23:41:36.407Z,11.27
2022-08-18T23:44:13.836Z,10.80
2022-08-18T23:46:48.641Z,15.60
2022-08-18T23:49:23.393Z,9.82
2022-08-18T23:51:57.827Z,12.30
2022-08-18T23:54:34.268Z,13.02
2022-08-18T23:57:07.887Z,11.82
2022-08-18T23:59:42.704Z,11.90
